Time;durP1;ratioP1;P1;durP2;ratioP2;P2;SDS_P1;SDS_P2;PMS_P1;PMS_P2;Temp;Humidity;BMP_temperature;BMP_pressure;BME280_temperature;BME280_humidity;BME280_pressure;Samples;Min_cycle;Max_cycle;Signal;HPM_P1;HPM_P2
2021/12/30 00:00:14;;;;;;;1.30;0.70;;;15.40;99.90;;;;;;5064983;28;20045;-66
2021/12/30 00:02:40;;;;;;;4.25;0.70;;;15.60;99.90;;;;;;5066992;28;20037;-66
2021/12/30 00:05:08;;;;;;;1.98;0.70;;;15.70;99.90;;;;;;5065082;28;20040;-66
2021/12/30 00:07:34;;;;;;;1.92;0.70;;;15.90;99.90;;;;;;5065513;28;20755;-66
2021/12/30 00:10:00;;;;;;;0.85;0.50;;;15.80;99.90;;;;;;5065326;28;20040;-66
2021/12/30 00:12:25;;;;;;;2.17;0.70;;;15.80;99.90;;;;;;5064880;28;20037;-66
2021/12/30 00:14:51;;;;;;;3.40;0.68;;;15.80;99.90;;;;;;5065370;28;20075;-66
2021/12/30 00:17:17;;;;;;;1.35;0.55;;;15.90;99.90;;;;;;5048040;28;20037;-66
2021/12/30 00:19:42;;;;;;;1.00;0.60;;;16.00;99.90;;;;;;5065194;28;20040;-66
2021/12/30 00:22:09;;;;;;;1.52;0.70;;;16.00;99.90;;;;;;5046604;28;20128;-66
2021/12/30 00:24:35;;;;;;;2.03;0.80;;;16.00;99.90;;;;;;5066379;28;20039;-66
2021/12/30 00:27:01;;;;;;;0.88;0.70;;;16.10;99.90;;;;;;5064294;28;20021;-66
2021/12/30 00:29:27;;;;;;;1.80;0.70;;;16.10;99.90;;;;;;5033535;28;20020;-66
2021/12/30 00:31:53;;;;;;;1.60;0.80;;;16.00;99.90;;;;;;5063867;28;20081;-66
2021/12/30 00:34:19;;;;;;;1.17;0.70;;;15.90;99.90;;;;;;5063416;28;20028;-66
2021/12/30 00:36:45;;;;;;;1.77;0.82;;;15.80;99.90;;;;;;5065917;28;20529;-66
2021/12/30 00:39:11;;;;;;;1.38;0.70;;;15.70;99.90;;;;;;5063365;28;20033;-66
2021/12/30 00:41:37;;;;;;;1.08;0.70;;;15.70;99.90;;;;;;5066069;28;20025;-66
2021/12/30 00:44:03;;;;;;;3.33;0.50;;;15.70;99.90;;;;;;5045768;28;20040;-65
2021/12/30 00:46:29;;;;;;;0.60;0.60;;;15.70;99.90;;;;;;5044893;28;20032;-66
2021/12/30 00:48:55;;;;;;;1.17;0.70;;;15.60;99.90;;;;;;5064681;28;20394;-66
2021/12/30 00:51:20;;;;;;;2.03;1.00;;;15.60;99.90;;;;;;5064368;28;20499;-66
2021/12/30 00:53:46;;;;;;;2.00;0.70;;;15.60;99.90;;;;;;5071637;28;20044;-68
2021/12/30 00:56:12;;;;;;;0.70;0.55;;;15.60;99.90;;;;;;5067942;28;20044;-68
2021/12/30 00:58:38;;;;;;;0.98;0.68;;;15.50;99.90;;;;;;5067787;28;20016;-68
2021/12/30 01:01:05;;;;;;;2.53;0.88;;;15.50;99.90;;;;;;5068658;28;20426;-68
2021/12/30 01:03:31;;;;;;;1.02;0.50;;;15.50;99.90;;;;;;5069952;28;20039;-68
2021/12/30 01:05:57;;;;;;;1.63;0.50;;;15.60;99.90;;;;;;5069000;28;20460;-68
2021/12/30 01:08:23;;;;;;;0.60;0.60;;;15.60;99.90;;;;;;5068874;28;20437;-68
2021/12/30 01:10:50;;;;;;;0.63;0.60;;;15.60;99.90;;;;;;5067032;28;20355;-68
2021/12/30 01:13:22;;;;;;;1.60;0.60;;;15.60;99.90;;;;;;5066862;28;20040;-67
2021/12/30 01:15:57;;;;;;;1.70;0.80;;;15.50;99.90;;;;;;5065500;28;20094;-68
2021/12/30 01:20:57;;;;;;;2.53;0.70;;;15.40;99.90;;;;;;5068425;28;20028;-68
2021/12/30 01:23:23;;;;;;;1.38;0.70;;;15.40;99.90;;;;;;5067505;28;20039;-68
2021/12/30 01:25:50;;;;;;;1.73;0.90;;;15.30;99.90;;;;;;5066462;28;20079;-68
2021/12/30 01:28:15;;;;;;;1.77;0.80;;;15.30;99.90;;;;;;5066068;28;20513;-68
2021/12/30 01:30:41;;;;;;;2.35;0.90;;;15.20;99.90;;;;;;5069560;28;20033;-68
2021/12/30 01:33:07;;;;;;;2.20;0.80;;;15.20;99.90;;;;;;5066919;28;20491;-68
2021/12/30 01:35:33;;;;;;;1.20;0.70;;;15.10;99.90;;;;;;5068473;28;20032;-68
2021/12/30 01:38:01;;;;;;;1.10;0.60;;;15.00;99.90;;;;;;5065734;28;20039;-68
2021/12/30 01:40:29;;;;;;;1.95;0.80;;;15.00;99.90;;;;;;5065768;28;20021;-68
2021/12/30 01:42:55;;;;;;;2.30;0.80;;;15.00;99.90;;;;;;5068635;28;20146;-68
2021/12/30 01:45:20;;;;;;;1.38;0.80;;;15.00;99.90;;;;;;5066537;28;20585;-68
2021/12/30 01:47:50;;;;;;;1.13;0.70;;;14.90;99.90;;;;;;5072598;28;20029;-68
2021/12/30 01:50:18;;;;;;;1.75;0.60;;;14.80;99.90;;;;;;5053086;28;20033;-68
2021/12/30 01:52:43;;;;;;;1.95;0.60;;;14.90;99.90;;;;;;5047416;28;20032;-68
2021/12/30 01:55:11;;;;;;;1.02;0.65;;;14.90;99.90;;;;;;5069179;28;20390;-66
2021/12/30 01:57:36;;;;;;;0.60;0.50;;;15.00;99.90;;;;;;5069245;28;20505;-66
2021/12/30 02:00:06;;;;;;;0.60;0.50;;;15.10;99.90;;;;;;5070891;28;20051;-65
2021/12/30 02:02:32;;;;;;;1.85;0.70;;;15.10;99.90;;;;;;5071319;28;20044;-65
2021/12/30 02:04:58;;;;;;;1.10;0.60;;;15.10;99.90;;;;;;5068854;28;20055;-65
2021/12/30 02:07:24;;;;;;;0.50;0.50;;;15.10;99.90;;;;;;5050340;28;20064;-66
2021/12/30 02:09:50;;;;;;;1.38;0.60;;;15.10;99.90;;;;;;5068791;28;20028;-66
2021/12/30 02:12:16;;;;;;;0.93;0.50;;;15.10;99.90;;;;;;5069355;28;20036;-66
2021/12/30 02:14:42;;;;;;;2.22;0.55;;;15.10;99.90;;;;;;5072361;28;20077;-66
2021/12/30 02:17:08;;;;;;;0.50;0.50;;;15.00;99.90;;;;;;5068571;28;20079;-66
2021/12/30 02:19:34;;;;;;;1.35;0.60;;;15.00;99.90;;;;;;5069079;28;20025;-65
2021/12/30 02:22:00;;;;;;;1.23;0.60;;;15.00;99.90;;;;;;5050796;28;20024;-66
2021/12/30 02:24:26;;;;;;;0.57;0.57;;;14.90;99.90;;;;;;5051656;28;20467;-65
2021/12/30 02:26:52;;;;;;;1.40;0.70;;;14.90;99.90;;;;;;5071621;28;20020;-65
2021/12/30 02:29:18;;;;;;;0.60;0.55;;;14.90;99.90;;;;;;5069847;28;20024;-66
2021/12/30 02:31:44;;;;;;;2.42;0.60;;;14.90;99.90;;;;;;5067999;28;20394;-66
2021/12/30 02:34:10;;;;;;;0.82;0.60;;;15.00;99.90;;;;;;5068708;28;20028;-65
2021/12/30 02:36:37;;;;;;;5.97;2.22;;;15.00;99.90;;;;;;5068405;28;20045;-65
2021/12/30 02:39:07;;;;;;;2.58;1.20;;;14.90;99.90;;;;;;5070843;28;20028;-65
2021/12/30 02:41:34;;;;;;;3.60;1.00;;;14.80;99.90;;;;;;5071185;28;20111;-66
2021/12/30 02:44:02;;;;;;;3.20;1.10;;;14.70;99.90;;;;;;5068429;28;20036;-66
2021/12/30 02:46:32;;;;;;;3.65;1.40;;;14.70;99.90;;;;;;5068636;28;20032;-66
2021/12/30 02:48:59;;;;;;;2.97;1.27;;;14.60;99.90;;;;;;5068556;28;20032;-66
2021/12/30 02:51:25;;;;;;;2.95;1.20;;;14.50;99.90;;;;;;5068518;28;20040;-66
2021/12/30 02:53:52;;;;;;;3.22;1.20;;;14.50;99.90;;;;;;5068227;28;20024;-68
2021/12/30 02:56:18;;;;;;;3.78;1.17;;;14.40;99.90;;;;;;5069895;28;20032;-68
2021/12/30 02:58:44;;;;;;;5.63;1.25;;;14.40;99.90;;;;;;5068199;28;20028;-68
2021/12/30 03:01:16;;;;;;;3.00;1.10;;;14.20;99.90;;;;;;5068410;28;20040;-68
2021/12/30 03:03:42;;;;;;;5.45;1.10;;;14.20;99.90;;;;;;5068073;28;20036;-68
2021/12/30 03:06:11;;;;;;;2.72;1.00;;;14.10;99.90;;;;;;5069738;28;20031;-67
2021/12/30 03:08:38;;;;;;;0.60;0.60;;;14.00;99.90;;;;;;5071508;28;20608;-68
2021/12/30 03:11:05;;;;;;;1.20;0.80;;;14.10;99.90;;;;;;5068585;28;20033;-68
2021/12/30 03:13:32;;;;;;;0.93;0.60;;;14.10;99.90;;;;;;5068264;28;20032;-68
2021/12/30 03:16:06;;;;;;;2.10;0.80;;;14.10;99.90;;;;;;5068189;28;20129;-68
2021/12/30 03:18:33;;;;;;;4.93;1.40;;;14.10;99.90;;;;;;5070980;28;20083;-68
2021/12/30 03:21:00;;;;;;;3.85;1.00;;;14.10;99.90;;;;;;5074230;28;20024;-68
2021/12/30 03:23:26;;;;;;;2.00;0.80;;;14.10;99.90;;;;;;5074884;28;20143;-68
2021/12/30 03:25:52;;;;;;;2.45;0.80;;;14.10;99.90;;;;;;5071564;28;20123;-67
2021/12/30 03:28:18;;;;;;;1.10;0.60;;;14.20;99.90;;;;;;5071747;28;20533;-68
2021/12/30 03:30:45;;;;;;;0.77;0.55;;;14.20;99.90;;;;;;5071660;28;20112;-68
2021/12/30 03:33:11;;;;;;;0.75;0.57;;;14.20;99.90;;;;;;5072775;28;20056;-68
2021/12/30 03:35:37;;;;;;;0.90;0.60;;;14.30;99.90;;;;;;5074548;28;20127;-68
2021/12/30 03:38:03;;;;;;;1.00;0.65;;;14.30;99.90;;;;;;5071706;28;20032;-68
2021/12/30 03:40:29;;;;;;;0.50;0.50;;;14.30;99.90;;;;;;5071464;28;20042;-68
2021/12/30 03:42:55;;;;;;;1.15;0.63;;;14.30;99.90;;;;;;5071928;28;20032;-68
2021/12/30 03:45:21;;;;;;;0.98;0.65;;;14.30;99.90;;;;;;5073324;28;20066;-68
2021/12/30 03:47:49;;;;;;;0.50;0.50;;;14.30;99.90;;;;;;5055496;28;20028;-68
2021/12/30 03:50:20;;;;;;;1.58;0.60;;;14.20;99.90;;;;;;5072576;28;20506;-68
2021/12/30 03:52:48;;;;;;;0.68;0.60;;;14.20;99.90;;;;;;5069275;28;20029;-68
2021/12/30 03:55:15;;;;;;;0.77;0.55;;;14.20;99.90;;;;;;5071814;28;20401;-68
2021/12/30 03:57:41;;;;;;;1.42;0.50;;;14.20;99.90;;;;;;5071290;28;20040;-68
2021/12/30 04:00:07;;;;;;;1.38;0.70;;;14.20;99.90;;;;;;5072482;28;20442;-68
2021/12/30 04:02:33;;;;;;;1.10;0.60;;;14.20;99.90;;;;;;5073549;28;20024;-68
2021/12/30 04:04:59;;;;;;;1.90;0.70;;;14.20;99.90;;;;;;5053225;28;20550;-66
2021/12/30 04:07:25;;;;;;;1.88;0.70;;;14.10;99.90;;;;;;5071183;28;20115;-66
2021/12/30 04:09:50;;;;;;;0.63;0.60;;;14.10;99.90;;;;;;5070924;28;20035;-66
2021/12/30 04:12:18;;;;;;;0.60;0.60;;;14.10;99.90;;;;;;5071358;28;20108;-66
2021/12/30 04:14:44;;;;;;;1.95;0.70;;;14.00;99.90;;;;;;5072174;28;20032;-66
2021/12/30 04:17:10;;;;;;;1.92;0.70;;;14.00;99.90;;;;;;5071043;28;20559;-66
2021/12/30 04:19:36;;;;;;;0.93;0.60;;;14.00;99.90;;;;;;5071171;28;20025;-65
2021/12/30 04:22:02;;;;;;;1.85;0.73;;;14.00;99.90;;;;;;5052958;28;20356;-66
2021/12/30 04:24:27;;;;;;;1.15;0.70;;;13.90;99.90;;;;;;5071212;28;20036;-65
2021/12/30 04:26:53;;;;;;;1.23;0.70;;;13.90;99.90;;;;;;5073152;28;20031;-65
2021/12/30 04:29:20;;;;;;;0.68;0.68;;;13.90;99.90;;;;;;5070795;28;20024;-66
2021/12/30 04:31:47;;;;;;;1.95;0.80;;;13.90;99.90;;;;;;5070277;28;20024;-66
2021/12/30 04:34:14;;;;;;;1.85;0.70;;;13.80;99.90;;;;;;5070651;28;20115;-66
2021/12/30 04:36:41;;;;;;;1.67;0.80;;;13.80;99.90;;;;;;5070687;28;20052;-66
2021/12/30 04:39:07;;;;;;;1.92;0.70;;;13.80;99.90;;;;;;5072070;28;20072;-66
2021/12/30 04:41:33;;;;;;;0.95;0.70;;;13.80;99.90;;;;;;5072786;28;20455;-66
2021/12/30 04:43:59;;;;;;;0.98;0.75;;;13.80;99.90;;;;;;5069927;28;20128;-66
2021/12/30 04:46:25;;;;;;;1.77;0.70;;;13.80;99.90;;;;;;5070250;28;20085;-66
2021/12/30 04:48:51;;;;;;;1.48;0.80;;;13.80;99.90;;;;;;5070271;28;20028;-66
2021/12/30 04:51:17;;;;;;;2.22;1.08;;;13.70;99.90;;;;;;5052752;28;20075;-66
2021/12/30 04:53:47;;;;;;;2.88;0.90;;;13.60;99.90;;;;;;5070864;28;20089;-67
2021/12/30 04:56:13;;;;;;;4.32;1.10;;;13.60;99.90;;;;;;5068656;28;20063;-66
2021/12/30 04:58:39;;;;;;;2.25;1.10;;;13.60;99.90;;;;;;5052240;28;20466;-65
2021/12/30 05:01:05;;;;;;;2.88;1.20;;;13.50;99.90;;;;;;5049907;28;20051;-65
2021/12/30 05:03:30;;;;;;;3.95;1.27;;;13.50;99.90;;;;;;5065181;28;20353;-66
2021/12/30 05:05:56;;;;;;;2.55;1.00;;;13.50;99.90;;;;;;5072261;28;20040;-66
2021/12/30 05:08:24;;;;;;;3.13;1.10;;;13.50;99.90;;;;;;5071146;28;20029;-65
2021/12/30 05:10:51;;;;;;;1.73;1.10;;;13.60;99.90;;;;;;5069713;28;20025;-66
2021/12/30 05:13:17;;;;;;;2.88;1.00;;;13.60;99.90;;;;;;5069942;28;20024;-66
2021/12/30 05:15:44;;;;;;;2.65;1.13;;;13.60;99.90;;;;;;5069958;28;20032;-66
2021/12/30 05:18:12;;;;;;;2.47;1.00;;;13.50;99.90;;;;;;5070781;28;20068;-66
2021/12/30 05:20:39;;;;;;;2.30;1.00;;;13.50;99.90;;;;;;5072593;28;20115;-66
2021/12/30 05:23:06;;;;;;;3.97;1.00;;;13.50;99.90;;;;;;5069607;28;20060;-66
2021/12/30 05:25:32;;;;;;;2.55;1.10;;;13.50;99.90;;;;;;5069963;28;20091;-65
2021/12/30 05:27:58;;;;;;;1.80;0.90;;;13.60;99.90;;;;;;5066789;28;20064;-66
2021/12/30 05:30:25;;;;;;;2.60;1.00;;;13.50;99.90;;;;;;5052553;28;20056;-65
2021/12/30 05:32:56;;;;;;;4.13;1.40;;;13.40;99.90;;;;;;5051969;28;20078;-66
2021/12/30 05:35:22;;;;;;;3.20;1.00;;;13.30;99.90;;;;;;5067925;28;20481;-66
2021/12/30 05:37:49;;;;;;;5.90;1.25;;;13.30;99.90;;;;;;5067023;28;20028;-66
2021/12/30 05:40:20;;;;;;;3.35;1.83;;;13.30;99.90;;;;;;5058575;28;20085;-66
2021/12/30 05:42:46;;;;;;;2.22;1.17;;;13.30;99.90;;;;;;5069970;28;20137;-66
2021/12/30 05:45:17;;;;;;;2.65;1.67;;;13.30;99.90;;;;;;5070578;28;20032;-65
2021/12/30 05:47:48;;;;;;;2.35;1.00;;;13.30;99.90;;;;;;5073076;28;20025;-66
2021/12/30 05:50:20;;;;;;;2.70;1.00;;;13.40;99.90;;;;;;5070221;28;20041;-66
2021/12/30 05:52:46;;;;;;;1.98;1.10;;;13.40;99.90;;;;;;5067352;28;20821;-66
2021/12/30 05:55:13;;;;;;;3.13;0.98;;;13.40;99.90;;;;;;5069264;28;20044;-65
2021/12/30 05:57:40;;;;;;;2.67;1.02;;;13.50;99.90;;;;;;5069808;28;20047;-66
2021/12/30 06:00:09;;;;;;;2.53;1.00;;;13.40;99.90;;;;;;5070523;28;20639;-66
2021/12/30 06:02:35;;;;;;;2.60;0.80;;;13.20;99.90;;;;;;5071336;28;20101;-66
2021/12/30 06:05:02;;;;;;;2.03;0.90;;;13.10;99.90;;;;;;5068676;28;20466;-66
2021/12/30 06:07:28;;;;;;;1.33;0.90;;;13.10;99.90;;;;;;5068937;28;20101;-66
2021/12/30 06:09:54;;;;;;;1.85;0.95;;;13.10;99.90;;;;;;5068478;28;20032;-66
2021/12/30 06:12:20;;;;;;;0.73;0.73;;;13.10;99.90;;;;;;5069274;28;20029;-66
2021/12/30 06:14:45;;;;;;;3.28;0.82;;;13.10;99.90;;;;;;5072190;28;20120;-66
2021/12/30 06:17:13;;;;;;;2.47;0.82;;;13.20;99.90;;;;;;5064105;28;20466;-66
2021/12/30 06:19:39;;;;;;;0.90;0.82;;;13.20;99.90;;;;;;5061871;28;20088;-67
2021/12/30 06:22:05;;;;;;;2.30;1.00;;;13.20;99.90;;;;;;5041145;28;20100;-66
2021/12/30 06:24:32;;;;;;;2.08;1.00;;;13.10;99.90;;;;;;5044203;28;20020;-66
2021/12/30 06:26:57;;;;;;;2.53;1.02;;;13.10;99.90;;;;;;5068981;28;20035;-66
2021/12/30 06:29:23;;;;;;;1.23;0.88;;;13.10;99.90;;;;;;5067797;28;20119;-66
2021/12/30 06:31:49;;;;;;;3.60;0.98;;;13.00;99.90;;;;;;5066748;28;20037;-66
2021/12/30 06:34:15;;;;;;;3.55;1.60;;;13.00;99.90;;;;;;5066723;28;20501;-66
2021/12/30 06:36:41;;;;;;;3.78;1.50;;;13.00;99.90;;;;;;5067844;28;20119;-66
2021/12/30 06:39:07;;;;;;;3.85;1.60;;;13.00;99.90;;;;;;5051354;28;20078;-66
2021/12/30 06:41:33;;;;;;;6.35;1.80;;;13.00;99.90;;;;;;5067699;28;20032;-66
2021/12/30 06:43:58;;;;;;;3.88;1.60;;;12.90;99.90;;;;;;5066243;28;20066;-66
2021/12/30 06:46:24;;;;;;;2.78;1.40;;;12.90;99.90;;;;;;5066588;28;20441;-66
2021/12/30 06:48:50;;;;;;;3.08;1.25;;;12.90;99.90;;;;;;5066793;28;20028;-66
2021/12/30 06:51:18;;;;;;;3.05;1.30;;;12.80;99.90;;;;;;5069733;28;20028;-67
2021/12/30 06:53:48;;;;;;;2.08;1.00;;;12.80;99.90;;;;;;5071444;28;20036;-70
2021/12/30 06:56:14;;;;;;;2.78;1.58;;;12.80;99.90;;;;;;5070219;28;20063;-73
2021/12/30 06:58:41;;;;;;;4.13;1.55;;;12.70;99.90;;;;;;5069888;28;20029;-72
2021/12/30 07:01:06;;;;;;;2.60;1.00;;;12.70;99.90;;;;;;5069955;28;20041;-71
2021/12/30 07:03:32;;;;;;;4.32;1.02;;;12.70;99.90;;;;;;5072777;28;20040;-72
2021/12/30 07:05:58;;;;;;;3.42;1.10;;;12.70;99.90;;;;;;5071945;28;20509;-73
2021/12/30 07:08:24;;;;;;;3.33;1.17;;;12.70;99.90;;;;;;5071193;28;20025;-73
2021/12/30 07:10:50;;;;;;;3.28;1.17;;;12.60;99.90;;;;;;5069766;28;20402;-73
2021/12/30 07:13:16;;;;;;;3.67;1.60;;;12.60;99.90;;;;;;5069376;28;20112;-72
2021/12/30 07:15:42;;;;;;;5.75;1.77;;;12.60;99.90;;;;;;5071097;28;20037;-72
2021/12/30 07:18:08;;;;;;;5.38;1.95;;;12.50;99.90;;;;;;5073008;28;20516;-72
2021/12/30 07:20:33;;;;;;;4.35;1.55;;;12.40;99.90;;;;;;5073943;28;20054;-70
2021/12/30 07:23:00;;;;;;;4.53;1.95;;;12.40;99.90;;;;;;5039494;28;20486;-71
2021/12/30 07:25:25;;;;;;;5.07;2.42;;;12.40;99.90;;;;;;5072306;28;20072;-68
2021/12/30 07:27:54;;;;;;;7.32;3.08;;;12.40;99.90;;;;;;5073875;28;20052;-70
2021/12/30 07:30:21;;;;;;;10.90;4.00;;;12.40;99.90;;;;;;5073963;28;20028;-70
2021/12/30 07:32:47;;;;;;;13.45;4.50;;;12.40;99.90;;;;;;5073318;28;20028;-69
2021/12/30 07:35:16;;;;;;;11.18;4.10;;;12.50;99.90;;;;;;5070995;28;20044;-70
2021/12/30 07:37:42;;;;;;;9.77;5.18;;;12.50;99.90;;;;;;5071549;28;20037;-70
2021/12/30 07:40:09;;;;;;;10.38;5.30;;;12.60;99.90;;;;;;5071435;28;20525;-69
2021/12/30 07:42:35;;;;;;;11.10;5.57;;;12.60;99.90;;;;;;5073709;28;20028;-69
2021/12/30 07:45:01;;;;;;;12.35;5.20;;;12.60;99.90;;;;;;5072095;28;20478;-69
2021/12/30 07:47:27;;;;;;;11.90;5.22;;;12.60;99.90;;;;;;5072338;28;20044;-69
2021/12/30 07:49:52;;;;;;;9.63;5.45;;;12.60;99.90;;;;;;5053273;28;20023;-70
2021/12/30 07:52:18;;;;;;;8.30;5.65;;;12.60;99.90;;;;;;5070730;28;20506;-70
2021/12/30 07:54:44;;;;;;;8.32;4.95;;;12.70;99.90;;;;;;5055324;28;20060;-67
2021/12/30 07:57:12;;;;;;;9.23;3.70;;;12.70;99.90;;;;;;5070321;28;20036;-67
2021/12/30 07:59:37;;;;;;;11.40;2.90;;;12.70;99.90;;;;;;5072566;28;20037;-67
2021/12/30 08:02:04;;;;;;;6.25;2.47;;;12.80;99.90;;;;;;5070443;28;20028;-66
2021/12/30 08:04:29;;;;;;;5.32;2.08;;;12.80;99.90;;;;;;5069930;28;20035;-66
2021/12/30 08:06:56;;;;;;;4.70;1.92;;;12.90;99.90;;;;;;5071663;28;20024;-67
2021/12/30 08:09:22;;;;;;;4.70;1.70;;;13.00;99.90;;;;;;5070397;28;20028;-66
2021/12/30 08:11:48;;;;;;;3.85;1.38;;;13.10;99.90;;;;;;5066921;28;20460;-66
2021/12/30 08:14:14;;;;;;;2.03;1.20;;;13.20;99.90;;;;;;5069506;28;20516;-67
2021/12/30 08:16:40;;;;;;;1.80;1.00;;;13.20;99.90;;;;;;5069245;28;20043;-66
2021/12/30 08:19:05;;;;;;;3.70;1.20;;;13.30;99.90;;;;;;5070080;28;20410;-67
2021/12/30 08:21:31;;;;;;;3.00;1.20;;;13.40;99.90;;;;;;5071170;28;20430;-67
2021/12/30 08:23:57;;;;;;;1.98;1.00;;;13.60;99.90;;;;;;5069887;28;20035;-66
2021/12/30 08:26:23;;;;;;;2.35;1.20;;;13.60;99.90;;;;;;5068934;28;20052;-68
2021/12/30 08:28:49;;;;;;;2.75;1.08;;;13.70;99.90;;;;;;5067994;28;20116;-68
2021/12/30 08:31:15;;;;;;;3.72;1.17;;;13.90;99.90;;;;;;5068057;28;20057;-68
2021/12/30 08:33:41;;;;;;;3.08;1.13;;;14.10;99.90;;;;;;5071194;28;20100;-69
2021/12/30 08:36:07;;;;;;;5.22;1.20;;;14.30;99.90;;;;;;5068059;28;20052;-68
2021/12/30 08:38:33;;;;;;;3.95;1.30;;;14.60;99.90;;;;;;5068801;28;20382;-67
2021/12/30 08:40:59;;;;;;;5.80;1.77;;;15.00;99.90;;;;;;5065862;28;20089;-66
2021/12/30 08:43:26;;;;;;;4.00;1.40;;;16.10;99.90;;;;;;5067163;28;20108;-73
2021/12/30 08:45:52;;;;;;;4.35;1.50;;;17.00;99.90;;;;;;5052298;28;20035;-73
2021/12/30 08:48:19;;;;;;;3.75;1.40;;;17.60;99.90;;;;;;5067562;28;20458;-71
2021/12/30 08:50:46;;;;;;;4.13;1.02;;;18.10;99.90;;;;;;5068876;28;20437;-74
2021/12/30 08:53:14;;;;;;;2.72;1.10;;;18.50;99.20;;;;;;5066975;28;20045;-71
2021/12/30 08:55:40;;;;;;;3.45;1.00;;;18.80;98.30;;;;;;5066456;28;20578;-71
2021/12/30 08:58:06;;;;;;;2.50;1.08;;;19.10;97.40;;;;;;5068270;28;20036;-70
2021/12/30 09:00:36;;;;;;;1.90;0.90;;;19.60;96.30;;;;;;5066921;28;20041;-71
2021/12/30 09:03:04;;;;;;;3.08;1.30;;;19.70;95.60;;;;;;5068700;28;20095;-73
2021/12/30 09:05:31;;;;;;;2.35;0.90;;;20.00;94.80;;;;;;5067694;28;20025;-71
2021/12/30 09:07:58;;;;;;;3.67;0.80;;;20.30;94.10;;;;;;5065815;28;20039;-71
2021/12/30 09:10:24;;;;;;;2.33;1.05;;;19.90;93.70;;;;;;5065292;28;20040;-71
2021/12/30 09:12:52;;;;;;;3.33;0.90;;;19.20;94.60;;;;;;5063659;28;20039;-71
2021/12/30 09:15:20;;;;;;;2.22;0.90;;;18.60;95.90;;;;;;5064082;28;20489;-70
2021/12/30 09:17:47;;;;;;;2.65;0.95;;;18.10;97.40;;;;;;5067858;28;20109;-70
2021/12/30 09:20:14;;;;;;;0.80;0.70;;;17.60;98.60;;;;;;5068187;28;20032;-70
2021/12/30 09:22:40;;;;;;;2.65;0.80;;;17.30;99.60;;;;;;5066929;28;20039;-70
2021/12/30 09:25:09;;;;;;;2.72;0.82;;;17.00;99.90;;;;;;5068017;28;20032;-69
2021/12/30 09:27:41;;;;;;;2.53;1.00;;;16.90;99.90;;;;;;5067496;28;20036;-70
2021/12/30 09:30:13;;;;;;;1.98;0.90;;;16.80;99.90;;;;;;5069476;28;20051;-70
2021/12/30 09:32:40;;;;;;;3.33;0.90;;;16.80;99.90;;;;;;5070225;28;20028;-70
2021/12/30 09:35:07;;;;;;;3.88;0.98;;;16.80;99.90;;;;;;5067545;28;20064;-70
2021/12/30 09:37:33;;;;;;;4.18;1.20;;;16.80;99.90;;;;;;5066833;28;20036;-69
2021/12/30 09:39:59;;;;;;;3.90;1.10;;;16.80;99.90;;;;;;5066629;28;20031;-70
2021/12/30 09:42:25;;;;;;;5.40;1.17;;;16.90;99.90;;;;;;5049417;28;20037;-69
2021/12/30 09:44:51;;;;;;;3.55;1.10;;;16.90;99.90;;;;;;5069069;28;20034;-69
2021/12/30 09:47:17;;;;;;;2.88;1.02;;;17.00;99.90;;;;;;5067092;28;20029;-69
2021/12/30 09:49:45;;;;;;;2.50;0.93;;;17.00;99.90;;;;;;5061501;28;20029;-69
2021/12/30 09:52:11;;;;;;;3.50;1.77;;;17.10;99.90;;;;;;5066314;28;20031;-70
2021/12/30 09:54:36;;;;;;;3.58;1.20;;;17.10;99.90;;;;;;5067067;28;20548;-70
2021/12/30 09:57:02;;;;;;;4.57;1.60;;;17.10;99.90;;;;;;5068595;28;20040;-72
2021/12/30 09:59:31;;;;;;;3.80;1.30;;;17.20;99.90;;;;;;5064596;28;20085;-69
2021/12/30 10:01:56;;;;;;;2.67;1.10;;;17.20;99.90;;;;;;5063506;28;20033;-71
2021/12/30 10:04:30;;;;;;;2.78;1.20;;;17.30;99.90;;;;;;5064259;28;20032;-72
2021/12/30 10:06:56;;;;;;;3.15;1.48;;;17.30;99.90;;;;;;5057055;28;20086;-73
2021/12/30 10:09:29;;;;;;;3.35;1.05;;;17.40;99.90;;;;;;5058388;28;20028;-70
2021/12/30 10:11:56;;;;;;;2.78;1.10;;;17.40;99.90;;;;;;5066328;28;20032;-70
2021/12/30 10:14:30;;;;;;;4.20;1.30;;;17.50;99.90;;;;;;5059864;28;20033;-71
2021/12/30 10:17:19;;;;;;;4.45;1.90;;;17.60;99.90;;;;;;5059418;28;20040;-71
2021/12/30 10:19:45;;;;;;;2.85;1.30;;;17.70;99.90;;;;;;5063019;28;20090;-72
2021/12/30 10:22:14;;;;;;;3.10;1.48;;;17.80;99.90;;;;;;5060156;28;20448;-70
2021/12/30 10:24:42;;;;;;;3.65;1.60;;;17.90;99.90;;;;;;5065304;28;20029;-70
2021/12/30 10:27:08;;;;;;;2.75;1.20;;;18.00;99.90;;;;;;5070267;28;20524;-70
2021/12/30 10:29:44;;;;;;;3.30;1.25;;;18.10;99.90;;;;;;5074882;28;20024;-71
2021/12/30 10:32:15;;;;;;;2.25;1.00;;;18.20;99.90;;;;;;5071618;28;20119;-70
2021/12/30 10:35:04;;;;;;;2.30;0.98;;;18.20;99.90;;;;;;5071233;28;20021;-70
2021/12/30 10:37:30;;;;;;;1.70;0.98;;;18.30;99.90;;;;;;5065440;28;20052;-70
2021/12/30 10:39:56;;;;;;;3.20;1.17;;;18.40;99.90;;;;;;5062655;28;20021;-70
2021/12/30 10:42:21;;;;;;;2.40;0.85;;;18.40;99.90;;;;;;5069431;28;20043;-70
2021/12/30 10:44:52;;;;;;;3.05;0.95;;;18.40;99.90;;;;;;5075173;28;20094;-70
2021/12/30 10:47:24;;;;;;;3.22;1.00;;;18.50;99.90;;;;;;5055603;28;20033;-72
2021/12/30 10:50:10;;;;;;;1.58;0.80;;;18.60;99.90;;;;;;5069940;28;20034;-73
2021/12/30 10:52:47;;;;;;;2.88;1.08;;;18.60;99.90;;;;;;5070116;28;20394;-70
2021/12/30 10:55:14;;;;;;;2.38;1.10;;;18.80;99.90;;;;;;5070235;28;20120;-73
2021/12/30 10:57:40;;;;;;;3.72;1.25;;;18.80;99.90;;;;;;5070193;28;20040;-75
2021/12/30 11:00:08;;;;;;;3.55;1.20;;;18.90;99.90;;;;;;5068185;28;20053;-80
2021/12/30 11:02:35;;;;;;;4.15;1.40;;;18.90;99.90;;;;;;5071520;28;20036;-73
2021/12/30 11:05:08;;;;;;;6.18;1.77;;;19.00;99.90;;;;;;5067982;28;20017;-72
2021/12/30 11:07:51;;;;;;;4.20;1.88;;;19.00;99.90;;;;;;5068252;28;20037;-73
2021/12/30 11:10:28;;;;;;;4.13;1.60;;;19.00;99.90;;;;;;5062908;28;20032;-74
2021/12/30 11:12:54;;;;;;;7.13;3.13;;;19.00;99.90;;;;;;5052438;28;20060;-70
2021/12/30 11:15:26;;;;;;;4.90;2.15;;;19.10;99.90;;;;;;5069202;28;20075;-72
2021/12/30 11:18:05;;;;;;;4.38;2.33;;;19.10;99.90;;;;;;5070815;28;20441;-71
2021/12/30 11:20:44;;;;;;;5.20;2.67;;;19.20;99.90;;;;;;5071659;28;20067;-72
2021/12/30 11:23:13;;;;;;;5.25;2.20;;;19.30;99.70;;;;;;5068881;28;20024;-73
2021/12/30 11:25:39;;;;;;;11.07;6.03;;;19.50;99.90;;;;;;5071057;28;20021;-73
2021/12/30 11:28:05;;;;;;;4.20;1.80;;;19.70;99.30;;;;;;5070653;28;20390;-73
2021/12/30 11:30:31;;;;;;;5.22;3.33;;;19.90;98.90;;;;;;5070115;28;20029;-73
2021/12/30 11:32:57;;;;;;;4.20;1.30;;;20.10;98.50;;;;;;5072506;28;20024;-72
2021/12/30 11:35:27;;;;;;;5.75;2.38;;;20.30;98.10;;;;;;5055949;28;20036;-71
2021/12/30 11:37:56;;;;;;;5.05;1.30;;;20.30;97.60;;;;;;5069008;28;20413;-71
2021/12/30 11:40:25;;;;;;;2.63;1.05;;;20.20;98.00;;;;;;5070428;28;20017;-73
2021/12/30 11:43:21;;;;;;;6.00;0.80;;;20.20;97.80;;;;;;5069405;28;20020;-71
2021/12/30 11:45:47;;;;;;;3.47;1.33;;;20.20;97.60;;;;;;5061420;28;20036;-70
2021/12/30 11:48:29;;;;;;;2.58;1.05;;;20.10;97.60;;;;;;5071018;28;20123;-68
2021/12/30 11:51:18;;;;;;;3.42;1.30;;;20.10;97.80;;;;;;5070780;28;20100;-67
2021/12/30 11:53:46;;;;;;;3.05;1.30;;;20.20;97.80;;;;;;5073818;28;20036;-67
2021/12/30 11:56:16;;;;;;;4.55;0.90;;;20.30;97.60;;;;;;5069025;28;20033;-68
2021/12/30 11:58:48;;;;;;;2.80;1.10;;;20.50;97.30;;;;;;5061452;28;20475;-67
2021/12/30 12:01:14;;;;;;;1.83;0.95;;;20.70;96.70;;;;;;5044242;28;20115;-68
2021/12/30 12:03:53;;;;;;;1.65;1.00;;;20.90;96.50;;;;;;5068959;28;20055;-68
2021/12/30 12:06:27;;;;;;;3.33;0.90;;;21.20;96.20;;;;;;5062619;28;20089;-69
2021/12/30 12:09:09;;;;;;;2.85;1.00;;;21.50;95.20;;;;;;5069589;28;20023;-67
2021/12/30 12:11:40;;;;;;;4.65;1.27;;;21.70;94.60;;;;;;5071897;28;20021;-71
2021/12/30 12:14:16;;;;;;;5.50;1.67;;;21.90;94.50;;;;;;5067514;28;20064;-72
2021/12/30 12:16:55;;;;;;;2.67;1.15;;;22.20;93.50;;;;;;5069319;28;20042;-71
2021/12/30 12:19:47;;;;;;;3.38;1.65;;;22.40;93.30;;;;;;5062844;28;20024;-74
2021/12/30 12:22:19;;;;;;;2.97;1.20;;;22.30;92.60;;;;;;5061721;28;20575;-75
2021/12/30 12:24:50;;;;;;;2.22;1.00;;;22.20;92.70;;;;;;5070103;28;20481;-71
2021/12/30 12:27:18;;;;;;;3.63;1.55;;;22.10;93.10;;;;;;5063943;28;20028;-72
2021/12/30 12:29:57;;;;;;;4.07;1.60;;;22.00;93.20;;;;;;5070271;28;20383;-70
2021/12/30 12:32:28;;;;;;;4.70;1.63;;;22.00;93.60;;;;;;5066664;28;20425;-71
2021/12/30 12:34:55;;;;;;;3.90;0.95;;;22.00;93.70;;;;;;5069920;28;20103;-75
2021/12/30 12:37:29;;;;;;;2.10;1.00;;;21.90;93.10;;;;;;5069437;28;20029;-72
2021/12/30 12:39:57;;;;;;;3.70;0.80;;;21.90;93.70;;;;;;5069327;28;20028;-73
2021/12/30 12:42:43;;;;;;;2.80;0.70;;;22.00;93.60;;;;;;5069382;28;20466;-71
2021/12/30 12:45:24;;;;;;;1.90;1.02;;;22.10;93.30;;;;;;5032910;28;20036;-73
2021/12/30 12:48:15;;;;;;;2.95;0.93;;;22.30;93.10;;;;;;5069366;28;20059;-72
2021/12/30 12:50:42;;;;;;;1.92;0.90;;;22.20;92.80;;;;;;5048109;28;20036;-71